createdAt,value
2017-09-13T00:00:32.317Z,1004.35
2017-09-13T00:01:32.283Z,1004.34
2017-09-13T00:02:32.247Z,1004.36
2017-09-13T00:03:32.215Z,1004.34
2017-09-13T00:04:32.176Z,1004.39
2017-09-13T00:05:32.154Z,1004.35
2017-09-13T00:06:32.106Z,1004.36
2017-09-13T00:07:32.071Z,1004.37
2017-09-13T00:08:32.038Z,1004.30
2017-09-13T00:09:32.005Z,1004.30
2017-09-13T00:10:31.965Z,1004.33
2017-09-13T00:11:31.930Z,1004.31
2017-09-13T00:12:31.901Z,1004.35
2017-09-13T00:13:31.857Z,1004.34
2017-09-13T00:14:31.821Z,1004.34
2017-09-13T00:15:31.787Z,1004.34
2017-09-13T00:16:31.755Z,1004.30
2017-09-13T00:17:31.722Z,1004.28
2017-09-13T00:18:31.690Z,1004.27
2017-09-13T00:19:31.646Z,1004.27
2017-09-13T00:20:31.612Z,1004.25
2017-09-13T00:21:31.579Z,1004.24
2017-09-13T00:22:31.543Z,1004.25
2017-09-13T00:23:31.503Z,1004.25
2017-09-13T00:24:31.472Z,1004.21
2017-09-13T00:25:31.436Z,1004.22
2017-09-13T00:26:31.399Z,1004.18
2017-09-13T00:27:31.366Z,1004.15
2017-09-13T00:28:31.328Z,1004.11
2017-09-13T00:29:31.300Z,1004.08
2017-09-13T00:30:31.257Z,1004.07
2017-09-13T00:31:31.225Z,1004.08
2017-09-13T00:32:31.188Z,1004.08
2017-09-13T00:33:31.154Z,1004.12
2017-09-13T00:34:31.120Z,1004.06
2017-09-13T00:35:31.082Z,1004.09
2017-09-13T00:36:31.045Z,1004.06
2017-09-13T00:37:31.008Z,1004.07
2017-09-13T00:38:30.979Z,1004.07
2017-09-13T00:39:30.938Z,1004.07
2017-09-13T00:40:30.897Z,1004.02
2017-09-13T00:41:30.867Z,1004.02
2017-09-13T00:42:30.834Z,1003.92
2017-09-13T00:43:30.794Z,1003.92
2017-09-13T00:44:30.758Z,1003.96
2017-09-13T00:45:30.720Z,1003.95
2017-09-13T00:46:30.691Z,1003.94
2017-09-13T00:47:30.653Z,1003.92
2017-09-13T00:48:30.633Z,1003.86
2017-09-13T00:49:30.583Z,1003.83
2017-09-13T00:50:30.541Z,1003.87
2017-09-13T00:51:30.510Z,1003.81
2017-09-13T00:52:30.474Z,1003.78
2017-09-13T00:53:30.449Z,1003.78
2017-09-13T00:54:30.399Z,1003.78
2017-09-13T00:55:30.365Z,1003.74
2017-09-13T00:56:30.334Z,1003.78
2017-09-13T00:57:30.298Z,1003.78
2017-09-13T00:58:30.263Z,1003.80
2017-09-13T00:59:30.227Z,1003.82
2017-09-13T01:00:30.185Z,1003.85
2017-09-13T01:01:30.149Z,1003.87
2017-09-13T01:02:30.113Z,1003.86
2017-09-13T01:03:30.077Z,1003.84
2017-09-13T01:04:30.045Z,1003.85
2017-09-13T01:05:30.010Z,1003.89
2017-09-13T01:06:29.971Z,1003.88
2017-09-13T01:07:29.935Z,1003.81
2017-09-13T01:08:29.916Z,1003.87
2017-09-13T01:09:29.867Z,1003.84
2017-09-13T01:10:29.831Z,1003.83
2017-09-13T01:11:29.793Z,1003.84
2017-09-13T01:12:29.769Z,1003.86
2017-09-13T01:13:29.765Z,1003.88
2017-09-13T01:14:29.685Z,1003.88
2017-09-13T01:15:29.649Z,1003.87
2017-09-13T01:16:29.613Z,1003.89
2017-09-13T01:17:29.582Z,1003.89
2017-09-13T01:18:29.542Z,1003.88
2017-09-13T01:19:29.522Z,1003.87
2017-09-13T01:20:29.481Z,1003.89
2017-09-13T01:21:29.436Z,1003.84
2017-09-13T01:22:29.397Z,1003.85
2017-09-13T01:23:29.364Z,1003.80
2017-09-13T01:24:29.327Z,1003.80
2017-09-13T01:25:29.292Z,1003.76
2017-09-13T01:26:29.256Z,1003.75
2017-09-13T01:27:29.223Z,1003.73
2017-09-13T01:28:29.188Z,1003.75
2017-09-13T01:29:29.158Z,1003.74
2017-09-13T01:30:29.113Z,1003.71
2017-09-13T01:31:29.074Z,1003.67
2017-09-13T01:32:29.041Z,1003.68
2017-09-13T01:33:29.009Z,1003.66
2017-09-13T01:34:28.971Z,1003.64
2017-09-13T01:35:28.937Z,1003.62
2017-09-13T01:36:28.898Z,1003.56
2017-09-13T01:37:28.867Z,1003.59
2017-09-13T01:38:28.822Z,1003.60
2017-09-13T01:39:28.798Z,1003.61
2017-09-13T01:40:28.759Z,1003.55
2017-09-13T01:41:28.717Z,1003.54
2017-09-13T01:42:28.678Z,1003.47
2017-09-13T01:43:28.642Z,1003.50
2017-09-13T01:44:28.607Z,1003.45
2017-09-13T01:45:28.571Z,1003.41
2017-09-13T01:46:28.537Z,1003.45
2017-09-13T01:47:28.500Z,1003.43
2017-09-13T01:48:28.469Z,1003.41
2017-09-13T01:49:28.429Z,1003.40
2017-09-13T01:50:28.391Z,1003.41
2017-09-13T01:51:28.355Z,1003.39
2017-09-13T01:52:28.328Z,1003.45
2017-09-13T01:53:28.285Z,1003.39
2017-09-13T01:54:28.247Z,1003.38
2017-09-13T01:55:28.212Z,1003.41
2017-09-13T01:56:28.175Z,1003.39
2017-09-13T01:57:28.148Z,1003.37
2017-09-13T01:58:28.109Z,1003.40
2017-09-13T01:59:28.067Z,1003.40
2017-09-13T02:00:28.033Z,1003.38
2017-09-13T02:01:27.999Z,1003.39
2017-09-13T02:02:27.961Z,1003.41
2017-09-13T02:03:27.931Z,1003.35
2017-09-13T02:04:27.885Z,1003.40
2017-09-13T02:05:27.853Z,1003.39
2017-09-13T02:06:27.816Z,1003.37
2017-09-13T02:07:27.778Z,1003.37
2017-09-13T02:08:27.742Z,1003.38
2017-09-13T02:09:27.707Z,1003.35
2017-09-13T02:10:27.676Z,1003.32
2017-09-13T02:11:27.633Z,1003.33
2017-09-13T02:12:27.604Z,1003.37
2017-09-13T02:13:27.564Z,1003.38
2017-09-13T02:14:27.526Z,1003.31
2017-09-13T02:15:27.488Z,1003.27
2017-09-13T02:16:27.452Z,1003.26
2017-09-13T02:17:27.418Z,1003.24
2017-09-13T02:18:27.382Z,1003.26
2017-09-13T02:19:27.343Z,1003.21
2017-09-13T02:20:27.307Z,1003.20
2017-09-13T02:21:27.273Z,1003.21
2017-09-13T02:22:27.241Z,1003.21
2017-09-13T02:23:27.199Z,1003.18
2017-09-13T02:24:27.166Z,1003.14
2017-09-13T02:25:27.128Z,1003.21
2017-09-13T02:26:27.092Z,1003.14
2017-09-13T02:27:27.053Z,1003.12
2017-09-13T02:28:27.023Z,1003.11
2017-09-13T02:29:26.982Z,1003.06
2017-09-13T02:30:26.947Z,1003.03
2017-09-13T02:31:26.910Z,1003.04
2017-09-13T02:32:26.873Z,1003.02
2017-09-13T02:33:26.839Z,1003.00
2017-09-13T02:34:26.799Z,1002.95
2017-09-13T02:35:26.763Z,1002.96
2017-09-13T02:36:26.729Z,1002.93
2017-09-13T02:37:26.691Z,1002.88
2017-09-13T02:38:26.655Z,1002.85
2017-09-13T02:39:26.618Z,1002.85
2017-09-13T02:40:26.584Z,1002.77
2017-09-13T02:41:26.549Z,1002.82
2017-09-13T02:42:26.529Z,1002.81
2017-09-13T02:43:26.481Z,1002.90
2017-09-13T02:44:26.437Z,1002.89
2017-09-13T02:45:26.401Z,1002.94
2017-09-13T02:46:26.373Z,1002.92
2017-09-13T02:47:26.329Z,1002.93
2017-09-13T02:48:26.292Z,1002.90
2017-09-13T02:49:26.257Z,1002.84
2017-09-13T02:50:26.219Z,1002.84
2017-09-13T02:51:26.205Z,1002.77
2017-09-13T02:52:26.152Z,1002.74
2017-09-13T02:53:26.114Z,1002.66
2017-09-13T02:54:26.079Z,1002.63
2017-09-13T02:55:26.039Z,1002.57
2017-09-13T02:56:25.999Z,1002.55
2017-09-13T02:57:25.966Z,1002.56
2017-09-13T02:58:25.935Z,1002.52
2017-09-13T02:59:25.904Z,1002.49
2017-09-13T03:00:25.860Z,1002.48
2017-09-13T03:01:25.819Z,1002.42
2017-09-13T03:02:25.784Z,1002.41
2017-09-13T03:03:25.747Z,1002.47
2017-09-13T03:04:25.721Z,1002.43
2017-09-13T03:05:25.675Z,1002.43
2017-09-13T03:06:25.649Z,1002.41
2017-09-13T03:07:25.608Z,1002.41
2017-09-13T03:08:25.566Z,1002.44
2017-09-13T03:09:25.531Z,1002.44
2017-09-13T03:10:25.497Z,1002.49
2017-09-13T03:11:25.464Z,1002.49
2017-09-13T03:12:25.428Z,1002.50
2017-09-13T03:13:25.389Z,1002.49
2017-09-13T03:14:25.350Z,1002.49
2017-09-13T03:15:25.316Z,1002.46
2017-09-13T03:16:25.280Z,1002.42
2017-09-13T03:17:25.241Z,1002.40
2017-09-13T03:18:25.204Z,1002.36
2017-09-13T03:19:25.168Z,1002.32
2017-09-13T03:20:25.135Z,1002.22
2017-09-13T03:21:25.093Z,1002.21
2017-09-13T03:22:25.059Z,1002.20
2017-09-13T03:23:25.023Z,1002.17
2017-09-13T03:24:24.983Z,1002.21
2017-09-13T03:25:24.954Z,1002.17
2017-09-13T03:26:24.916Z,1002.11
2017-09-13T03:27:24.877Z,1002.09
2017-09-13T03:28:24.839Z,1002.00
2017-09-13T03:29:24.800Z,1001.97
2017-09-13T03:30:24.770Z,1001.99
2017-09-13T03:31:24.731Z,1001.97
2017-09-13T03:32:24.694Z,1001.95
2017-09-13T03:33:24.660Z,1001.93
2017-09-13T03:34:24.621Z,1001.90
2017-09-13T03:35:24.586Z,1001.86
2017-09-13T03:36:24.579Z,1001.85
2017-09-13T03:37:24.513Z,1001.87
2017-09-13T03:38:24.478Z,1001.88
2017-09-13T03:39:24.446Z,1001.89
2017-09-13T03:40:24.406Z,1001.90
2017-09-13T03:41:24.368Z,1001.95
2017-09-13T03:42:24.337Z,1001.95
2017-09-13T03:43:24.298Z,1001.96
2017-09-13T03:44:24.258Z,1001.91
2017-09-13T03:45:24.228Z,1001.95
2017-09-13T03:46:24.186Z,1001.95
2017-09-13T03:47:24.149Z,1001.99
2017-09-13T03:48:24.110Z,1001.94
2017-09-13T03:49:24.079Z,1001.98
2017-09-13T03:50:24.039Z,1001.96
2017-09-13T03:51:24.005Z,1001.87
2017-09-13T03:52:23.968Z,1001.85
2017-09-13T03:53:23.931Z,1001.83
2017-09-13T03:54:23.894Z,1001.75
2017-09-13T03:55:23.863Z,1001.73
2017-09-13T03:56:23.823Z,1001.65
2017-09-13T03:57:23.784Z,1001.58
2017-09-13T03:58:23.748Z,1001.57
2017-09-13T03:59:23.713Z,1001.60
2017-09-13T04:00:23.678Z,1001.59
2017-09-13T04:01:23.641Z,1001.58
2017-09-13T04:02:23.606Z,1001.57
2017-09-13T04:03:23.567Z,1001.51
2017-09-13T04:04:23.537Z,1001.50
2017-09-13T04:05:23.499Z,1001.50
2017-09-13T04:06:23.457Z,1001.47
2017-09-13T04:07:23.424Z,1001.50
2017-09-13T04:08:23.385Z,1001.55
2017-09-13T04:09:23.351Z,1001.68
2017-09-13T04:10:23.315Z,1001.64
2017-09-13T04:11:23.280Z,1001.66
2017-09-13T04:12:23.242Z,1001.61
2017-09-13T04:13:23.218Z,1001.65
2017-09-13T04:14:23.181Z,1001.67
2017-09-13T04:15:23.137Z,1001.66
2017-09-13T04:16:23.120Z,1001.58
2017-09-13T04:17:23.062Z,1001.44
2017-09-13T04:18:23.024Z,1001.45
2017-09-13T04:19:22.987Z,1001.33
2017-09-13T04:20:22.951Z,1001.32
2017-09-13T04:21:22.913Z,1001.33
2017-09-13T04:22:22.889Z,1001.37
2017-09-13T04:23:22.840Z,1001.45
2017-09-13T04:24:22.802Z,1001.44
2017-09-13T04:25:22.779Z,1001.46
2017-09-13T04:26:22.727Z,1001.47
2017-09-13T04:27:22.697Z,1001.46
2017-09-13T04:28:22.656Z,1001.35
2017-09-13T04:29:22.636Z,1001.33
2017-09-13T04:30:22.585Z,1001.29
2017-09-13T04:31:22.569Z,1001.38
2017-09-13T04:32:22.517Z,1001.41
2017-09-13T04:33:22.482Z,1001.37
2017-09-13T04:34:22.436Z,1001.29
2017-09-13T04:35:22.402Z,1001.16
2017-09-13T04:36:22.362Z,1001.13
2017-09-13T04:37:22.327Z,1001.13
2017-09-13T04:38:22.299Z,1001.20
2017-09-13T04:39:22.256Z,1001.10
2017-09-13T04:40:22.225Z,1001.00
2017-09-13T04:41:22.187Z,1001.00
2017-09-13T04:42:22.146Z,1000.98
2017-09-13T04:43:22.121Z,1001.04
2017-09-13T04:44:22.084Z,1001.05
2017-09-13T04:45:22.046Z,1001.09
2017-09-13T04:46:22.002Z,1001.09
2017-09-13T04:47:21.967Z,1001.09
2017-09-13T04:48:21.928Z,1001.10
2017-09-13T04:49:21.890Z,1001.01
2017-09-13T04:50:21.860Z,1001.02
2017-09-13T04:51:21.820Z,1000.99
2017-09-13T04:52:21.784Z,1000.91
2017-09-13T04:53:21.752Z,1000.86
2017-09-13T04:54:21.710Z,1000.92
2017-09-13T04:55:21.685Z,1000.90
2017-09-13T04:56:21.638Z,1000.95
2017-09-13T04:57:21.607Z,1000.84
2017-09-13T04:58:21.567Z,1000.75
2017-09-13T04:59:21.531Z,1000.75
2017-09-13T05:00:21.494Z,1000.79
2017-09-13T05:01:21.460Z,1000.73
2017-09-13T05:02:21.427Z,1000.88
2017-09-13T05:03:21.392Z,1000.85
2017-09-13T05:04:21.359Z,1000.78
2017-09-13T05:05:21.318Z,1000.76
2017-09-13T05:06:21.282Z,1000.81
2017-09-13T05:07:21.245Z,1000.79
2017-09-13T05:08:21.232Z,1000.74
2017-09-13T05:09:21.176Z,1000.74
2017-09-13T05:10:21.167Z,1000.72
2017-09-13T05:11:21.113Z,1000.74
2017-09-13T05:12:21.139Z,1000.82
2017-09-13T05:13:21.189Z,1000.84
2017-09-13T05:14:21.053Z,1000.78
2017-09-13T05:15:20.970Z,1000.57
2017-09-13T05:16:20.929Z,1000.40
2017-09-13T05:17:20.895Z,1000.36
2017-09-13T05:18:20.863Z,1000.31
2017-09-13T05:19:20.830Z,1000.36
2017-09-13T05:20:20.792Z,1000.23
2017-09-13T05:21:20.773Z,1000.22
2017-09-13T05:22:20.729Z,1000.17
2017-09-13T05:23:20.708Z,1000.21
2017-09-13T05:24:20.655Z,1000.18
2017-09-13T05:25:20.623Z,1000.19
2017-09-13T05:26:20.609Z,1000.14
2017-09-13T05:27:20.565Z,1000.18
2017-09-13T05:28:20.536Z,1000.07
2017-09-13T05:29:20.491Z,1000.01
2017-09-13T05:30:20.447Z,1000.09
2017-09-13T05:31:20.423Z,1000.13
2017-09-13T05:32:20.375Z,1000.16
2017-09-13T05:33:20.354Z,1000.12
2017-09-13T05:34:20.319Z,1000.17
2017-09-13T05:35:20.284Z,1000.17
2017-09-13T05:36:20.245Z,1000.15
2017-09-13T05:37:20.243Z,1000.14
2017-09-13T05:38:20.189Z,1000.12
2017-09-13T05:39:20.130Z,1000.15
2017-09-13T05:40:20.155Z,1000.15
2017-09-13T05:41:20.105Z,1000.09
2017-09-13T05:42:20.059Z,1000.09
2017-09-13T05:43:20.145Z,1000.02
2017-09-13T05:44:19.962Z,1000.02
2017-09-13T05:45:19.945Z,999.92
2017-09-13T05:46:19.920Z,999.92
2017-09-13T05:47:19.853Z,999.92
2017-09-13T05:48:19.839Z,999.85
2017-09-13T05:49:19.796Z,999.85
2017-09-13T05:50:19.772Z,999.76
2017-09-13T05:51:19.770Z,999.85
2017-09-13T05:52:19.746Z,999.82
2017-09-13T05:53:19.659Z,999.83
2017-09-13T05:54:19.614Z,999.82
2017-09-13T05:55:19.600Z,999.80
2017-09-13T05:56:19.546Z,999.77
2017-09-13T05:57:19.508Z,999.70
2017-09-13T05:58:19.467Z,999.73
2017-09-13T05:59:19.445Z,999.66
2017-09-13T06:00:19.397Z,999.62
2017-09-13T06:01:19.370Z,999.63
2017-09-13T06:02:19.324Z,999.58
2017-09-13T06:03:19.290Z,999.57
2017-09-13T06:04:19.255Z,999.40
2017-09-13T06:05:19.222Z,999.42
2017-09-13T06:06:19.192Z,999.40
2017-09-13T06:07:19.151Z,999.33
2017-09-13T06:08:19.114Z,999.31
2017-09-13T06:09:19.080Z,999.30
2017-09-13T06:10:19.048Z,999.25
2017-09-13T06:11:19.019Z,999.20
2017-09-13T06:12:18.978Z,999.19
2017-09-13T06:13:18.990Z,999.19
2017-09-13T06:14:18.918Z,999.17
2017-09-13T06:15:18.882Z,999.17
2017-09-13T06:16:18.849Z,999.09
2017-09-13T06:17:18.830Z,999.10
2017-09-13T06:18:18.779Z,999.09
2017-09-13T06:19:18.830Z,999.04
2017-09-13T06:20:18.727Z,999.01
2017-09-13T06:21:18.664Z,999.03
2017-09-13T06:22:18.636Z,998.99
2017-09-13T06:23:18.592Z,998.96
2017-09-13T06:24:18.557Z,998.94
2017-09-13T06:25:18.572Z,998.88
2017-09-13T06:26:18.505Z,998.93
2017-09-13T06:27:18.467Z,998.85
2017-09-13T06:28:18.481Z,998.94
2017-09-13T06:29:18.479Z,998.92
2017-09-13T06:30:18.356Z,998.95
2017-09-13T06:31:18.313Z,998.90
2017-09-13T06:32:18.327Z,998.87
2017-09-13T06:33:18.249Z,998.86
2017-09-13T06:34:18.207Z,998.90
2017-09-13T06:35:18.207Z,998.86
2017-09-13T06:36:18.138Z,998.86
2017-09-13T06:37:18.098Z,998.92
2017-09-13T06:38:18.083Z,998.88
2017-09-13T06:39:18.047Z,998.87
2017-09-13T06:40:18.003Z,998.86
2017-09-13T06:41:17.962Z,998.88
2017-09-13T06:42:17.930Z,998.88
2017-09-13T06:43:17.898Z,998.85
2017-09-13T06:44:17.904Z,998.83
2017-09-13T06:45:17.825Z,998.89
2017-09-13T06:46:17.791Z,998.91
2017-09-13T06:47:17.780Z,998.86
2017-09-13T06:48:17.716Z,998.84
2017-09-13T06:49:17.683Z,998.84
2017-09-13T06:50:17.644Z,998.82
2017-09-13T06:51:17.638Z,998.79
2017-09-13T06:52:17.574Z,998.77
2017-09-13T06:53:17.539Z,998.71
2017-09-13T06:54:17.506Z,998.76
2017-09-13T06:55:17.479Z,998.77
2017-09-13T06:56:17.434Z,998.73
2017-09-13T06:57:17.409Z,998.72
2017-09-13T06:58:17.391Z,998.71
2017-09-13T06:59:17.330Z,998.64
2017-09-13T07:00:17.304Z,998.62
2017-09-13T07:01:17.259Z,998.51
2017-09-13T07:02:17.225Z,998.57
2017-09-13T07:03:17.206Z,998.55
2017-09-13T07:04:17.156Z,998.50
2017-09-13T07:05:17.126Z,998.42
2017-09-13T07:06:17.096Z,998.35
2017-09-13T07:07:17.080Z,998.25
2017-09-13T07:08:17.018Z,998.14
2017-09-13T07:09:16.983Z,998.23
2017-09-13T07:10:16.957Z,998.19
2017-09-13T07:11:16.927Z,998.24
2017-09-13T07:12:16.879Z,998.24
2017-09-13T07:13:16.844Z,998.24
2017-09-13T07:14:16.807Z,998.22
2017-09-13T07:15:16.774Z,998.27
2017-09-13T07:16:16.741Z,998.23
2017-09-13T07:17:16.718Z,998.29
2017-09-13T07:18:16.714Z,998.19
2017-09-13T07:19:16.648Z,998.20
2017-09-13T07:20:16.610Z,998.18
2017-09-13T07:21:16.577Z,998.14
2017-09-13T07:22:16.546Z,998.11
2017-09-13T07:23:16.510Z,998.11
2017-09-13T07:24:16.480Z,998.17
2017-09-13T07:25:16.437Z,998.14
2017-09-13T07:26:16.404Z,998.09
2017-09-13T07:27:16.388Z,998.02
2017-09-13T07:28:16.388Z,998.03
2017-09-13T07:29:16.326Z,998.00
2017-09-13T07:30:16.326Z,997.87
2017-09-13T07:31:16.236Z,997.87
2017-09-13T07:32:16.203Z,997.89
2017-09-13T07:33:16.186Z,997.80
2017-09-13T07:34:16.133Z,997.75
2017-09-13T07:35:18.613Z,997.69
2017-09-13T07:36:16.050Z,997.65
2017-09-13T07:37:16.026Z,997.65
2017-09-13T07:38:15.981Z,997.72
2017-09-13T07:39:15.969Z,997.66
2017-09-13T07:40:15.911Z,997.55
2017-09-13T07:41:15.879Z,997.59
2017-09-13T07:42:15.843Z,997.62
2017-09-13T07:43:15.813Z,997.60
2017-09-13T07:44:15.791Z,997.60
2017-09-13T07:45:15.745Z,997.58
2017-09-13T07:46:15.714Z,997.54
2017-09-13T07:47:15.671Z,997.59
2017-09-13T07:48:15.635Z,997.56
2017-09-13T07:49:15.606Z,997.56
2017-09-13T07:50:15.566Z,997.51
2017-09-13T07:51:15.546Z,997.43
2017-09-13T07:52:15.501Z,997.41
2017-09-13T07:53:15.466Z,997.36
2017-09-13T07:54:15.430Z,997.41
2017-09-13T07:55:15.399Z,997.36
2017-09-13T07:56:15.363Z,997.26
2017-09-13T07:57:15.330Z,997.23
2017-09-13T07:58:15.301Z,997.15
2017-09-13T07:59:15.270Z,997.07
2017-09-13T08:00:15.227Z,997.07
2017-09-13T08:01:15.192Z,996.99
2017-09-13T08:02:15.179Z,996.95
2017-09-13T08:03:15.129Z,996.97
2017-09-13T08:04:15.091Z,996.89
2017-09-13T08:05:15.059Z,996.86
2017-09-13T08:06:15.023Z,996.88
2017-09-13T08:07:14.992Z,996.89
2017-09-13T08:08:14.961Z,996.77
2017-09-13T08:09:14.931Z,996.83
2017-09-13T08:10:14.888Z,996.76
2017-09-13T08:11:14.869Z,996.81
2017-09-13T08:12:14.821Z,996.77
2017-09-13T08:13:14.785Z,996.67
2017-09-13T08:14:14.750Z,996.71
2017-09-13T08:15:14.718Z,996.69
2017-09-13T08:16:14.704Z,996.49
2017-09-13T08:17:14.670Z,996.61
2017-09-13T08:18:14.617Z,996.55
2017-09-13T08:19:14.601Z,996.49
2017-09-13T08:20:14.555Z,996.52
2017-09-13T08:21:14.565Z,996.45
2017-09-13T08:22:14.477Z,996.37
2017-09-13T08:23:14.438Z,996.44
2017-09-13T08:24:14.422Z,996.43
2017-09-13T08:25:14.384Z,996.43
2017-09-13T08:26:14.338Z,996.40
2017-09-13T08:27:14.301Z,996.47
2017-09-13T08:28:14.269Z,996.42
2017-09-13T08:29:14.235Z,996.38
2017-09-13T08:30:14.200Z,996.44
2017-09-13T08:31:14.162Z,996.44
2017-09-13T08:32:14.131Z,996.39
2017-09-13T08:33:14.095Z,996.41
2017-09-13T08:34:14.063Z,996.43
2017-09-13T08:35:14.030Z,996.43
2017-09-13T08:36:14.001Z,996.46
2017-09-13T08:37:13.959Z,996.38
2017-09-13T08:38:13.929Z,996.35
2017-09-13T08:39:13.889Z,996.40
2017-09-13T08:40:13.864Z,996.42
2017-09-13T08:41:13.820Z,996.35
2017-09-13T08:42:13.787Z,996.32
2017-09-13T08:43:13.752Z,996.27
2017-09-13T08:44:13.724Z,996.19
2017-09-13T08:45:13.687Z,996.14
2017-09-13T08:46:13.648Z,996.24
2017-09-13T08:47:13.643Z,996.23
2017-09-13T08:48:13.580Z,996.22
2017-09-13T08:49:13.560Z,996.01
2017-09-13T08:50:13.518Z,996.14
2017-09-13T08:51:13.478Z,996.05
2017-09-13T08:52:13.446Z,996.12
2017-09-13T08:53:13.409Z,995.97
2017-09-13T08:54:13.375Z,996.03
2017-09-13T08:55:13.352Z,995.96
2017-09-13T08:56:13.304Z,996.03
2017-09-13T08:57:13.289Z,996.09
2017-09-13T08:58:13.237Z,996.08
2017-09-13T08:59:13.202Z,996.10
2017-09-13T09:00:13.169Z,996.01
2017-09-13T09:01:13.148Z,995.92
2017-09-13T09:02:13.100Z,995.92
2017-09-13T09:03:13.067Z,995.96
2017-09-13T09:04:13.034Z,995.91
2017-09-13T09:05:12.999Z,995.74
2017-09-13T09:06:12.971Z,995.83
2017-09-13T09:07:12.931Z,995.93
2017-09-13T09:08:12.892Z,995.86
2017-09-13T09:09:12.861Z,995.86
2017-09-13T09:10:12.826Z,995.88
2017-09-13T09:11:12.796Z,995.80
2017-09-13T09:12:12.760Z,995.87
2017-09-13T09:13:12.719Z,995.77
2017-09-13T09:14:12.693Z,995.80
2017-09-13T09:15:12.652Z,995.75
2017-09-13T09:16:12.616Z,995.73
2017-09-13T09:17:12.593Z,995.72
2017-09-13T09:18:12.552Z,995.62
2017-09-13T09:19:12.513Z,995.64
2017-09-13T09:20:12.487Z,995.66
2017-09-13T09:21:12.442Z,995.60
2017-09-13T09:22:12.603Z,995.67
2017-09-13T09:23:12.372Z,995.66
2017-09-13T09:24:12.347Z,995.66
2017-09-13T09:25:12.313Z,995.61
2017-09-13T09:26:12.270Z,995.62
2017-09-13T09:27:12.238Z,995.57
2017-09-13T09:28:12.203Z,995.61
2017-09-13T09:29:12.166Z,995.50
2017-09-13T09:30:12.137Z,995.53
2017-09-13T09:31:12.100Z,995.43
2017-09-13T09:32:12.077Z,995.31
2017-09-13T09:33:12.032Z,995.50
2017-09-13T09:34:11.998Z,995.47
2017-09-13T09:35:11.968Z,995.49
2017-09-13T09:36:11.930Z,995.56
2017-09-13T09:37:11.910Z,995.48
2017-09-13T09:38:11.858Z,995.45
2017-09-13T09:39:11.840Z,995.44
2017-09-13T09:40:11.796Z,995.40
2017-09-13T09:41:11.767Z,995.46
2017-09-13T09:42:11.722Z,995.43
2017-09-13T09:43:11.689Z,995.41
2017-09-13T09:44:11.653Z,995.33
2017-09-13T09:45:11.624Z,995.45
2017-09-13T09:46:11.586Z,995.37
2017-09-13T09:47:11.554Z,995.33
2017-09-13T09:48:11.523Z,995.36
2017-09-13T09:49:11.487Z,995.27
2017-09-13T09:50:11.459Z,995.40
2017-09-13T09:51:11.417Z,995.36
2017-09-13T09:52:11.383Z,995.29
2017-09-13T09:53:11.353Z,995.24
2017-09-13T09:54:11.319Z,995.20
2017-09-13T09:55:11.285Z,995.23
2017-09-13T09:56:11.256Z,995.27
2017-09-13T09:57:11.225Z,995.13
2017-09-13T09:58:11.181Z,995.04
2017-09-13T09:59:11.149Z,995.10
2017-09-13T10:00:11.120Z,995.14
2017-09-13T10:01:11.082Z,995.15
2017-09-13T10:02:11.052Z,995.04
2017-09-13T10:03:11.015Z,995.04
2017-09-13T10:04:10.986Z,994.92
2017-09-13T10:05:10.946Z,994.96
2017-09-13T10:06:10.944Z,994.91
2017-09-13T10:07:10.882Z,994.92
2017-09-13T10:08:10.845Z,994.83
2017-09-13T10:09:10.822Z,994.76
2017-09-13T10:10:10.780Z,994.80
2017-09-13T10:11:10.750Z,994.70
2017-09-13T10:12:10.712Z,994.81
2017-09-13T10:13:10.683Z,994.66
2017-09-13T10:14:10.647Z,994.55
2017-09-13T10:15:10.615Z,994.56
2017-09-13T10:16:10.582Z,994.56
2017-09-13T10:17:10.550Z,994.60
2017-09-13T10:18:10.523Z,994.64
2017-09-13T10:19:10.482Z,994.53
2017-09-13T10:20:10.462Z,994.36
2017-09-13T10:21:10.425Z,994.34
2017-09-13T10:22:10.389Z,994.39
2017-09-13T10:23:10.351Z,994.50
2017-09-13T10:24:10.316Z,994.48
2017-09-13T10:25:10.285Z,994.24
2017-09-13T10:26:10.254Z,994.08
2017-09-13T10:27:10.218Z,994.23
2017-09-13T10:28:10.187Z,994.21
2017-09-13T10:29:10.168Z,994.19
2017-09-13T10:30:10.130Z,994.10
2017-09-13T10:31:10.088Z,994.19
2017-09-13T10:32:10.056Z,994.27
2017-09-13T10:33:10.022Z,994.20
2017-09-13T10:34:09.988Z,994.17
2017-09-13T10:35:09.956Z,994.04
2017-09-13T10:36:09.926Z,994.06
2017-09-13T10:37:09.889Z,994.14
2017-09-13T10:38:09.860Z,994.11
2017-09-13T10:39:09.828Z,994.19
2017-09-13T10:40:09.793Z,994.12
2017-09-13T10:41:09.761Z,994.16
2017-09-13T10:42:09.728Z,994.08
2017-09-13T10:43:09.703Z,994.07
2017-09-13T10:44:09.670Z,994.09
2017-09-13T10:45:09.633Z,994.21
2017-09-13T10:46:09.618Z,994.34
2017-09-13T10:47:09.570Z,994.27
2017-09-13T10:48:09.537Z,994.20
2017-09-13T10:49:09.503Z,994.02
2017-09-13T10:50:09.475Z,994.15
2017-09-13T10:51:09.440Z,994.16
2017-09-13T10:52:09.405Z,994.20
2017-09-13T10:53:09.376Z,994.39
2017-09-13T10:54:09.346Z,994.28
2017-09-13T10:55:09.306Z,994.18
2017-09-13T10:56:09.276Z,994.10
2017-09-13T10:57:09.244Z,994.09
2017-09-13T10:58:09.207Z,994.08
2017-09-13T10:59:09.178Z,994.01
2017-09-13T11:00:09.145Z,994.09
2017-09-13T11:01:09.114Z,993.97
2017-09-13T11:02:09.094Z,994.11
2017-09-13T11:03:09.048Z,994.03
2017-09-13T11:04:09.016Z,993.94
2017-09-13T11:05:08.990Z,993.93
2017-09-13T11:06:08.973Z,993.95
2017-09-13T11:07:08.935Z,993.85
2017-09-13T11:08:08.896Z,993.85
2017-09-13T11:09:08.885Z,993.69
2017-09-13T11:10:08.826Z,993.90
2017-09-13T11:11:08.810Z,993.81
2017-09-13T11:12:08.765Z,993.96
2017-09-13T11:13:08.747Z,993.89
2017-09-13T11:14:08.725Z,993.77
2017-09-13T11:15:08.711Z,993.79
2017-09-13T11:16:08.674Z,993.66
2017-09-13T11:17:08.610Z,993.62
2017-09-13T11:18:08.577Z,993.77
2017-09-13T11:19:08.545Z,993.63
2017-09-13T11:20:08.534Z,993.37
2017-09-13T11:21:08.499Z,993.49
2017-09-13T11:22:08.450Z,993.51
2017-09-13T11:23:08.437Z,993.66
2017-09-13T11:24:08.384Z,993.47
2017-09-13T11:25:08.354Z,993.27
2017-09-13T11:26:08.327Z,993.46
2017-09-13T11:27:08.284Z,993.23
2017-09-13T11:28:08.254Z,993.25
2017-09-13T11:29:08.238Z,993.47
2017-09-13T11:30:08.196Z,993.40
2017-09-13T11:31:08.168Z,993.48
2017-09-13T11:32:08.134Z,993.37
2017-09-13T11:33:08.103Z,993.39
2017-09-13T11:34:08.071Z,993.15
2017-09-13T11:35:08.081Z,993.38
2017-09-13T11:36:08.008Z,993.32
2017-09-13T11:37:08.013Z,993.28
2017-09-13T11:38:07.937Z,993.21
2017-09-13T11:39:07.955Z,993.27
2017-09-13T11:40:07.949Z,993.26
2017-09-13T11:41:07.867Z,993.05
2017-09-13T11:42:07.849Z,993.01
2017-09-13T11:43:07.800Z,993.21
2017-09-13T11:44:07.777Z,993.28
2017-09-13T11:45:07.715Z,993.43
2017-09-13T11:46:07.695Z,993.25
2017-09-13T11:47:07.668Z,993.54
2017-09-13T11:48:07.623Z,993.25
2017-09-13T11:49:07.598Z,993.38
2017-09-13T11:50:07.566Z,993.18
2017-09-13T11:51:07.535Z,993.41
2017-09-13T11:52:07.507Z,993.38
2017-09-13T11:53:07.468Z,993.44
2017-09-13T11:54:07.438Z,993.36
2017-09-13T11:55:07.409Z,993.33
2017-09-13T11:56:07.429Z,993.10
2017-09-13T11:57:07.343Z,993.37
2017-09-13T11:58:07.311Z,993.33
2017-09-13T11:59:07.283Z,993.16
2017-09-13T12:00:07.256Z,993.07
2017-09-13T12:01:07.230Z,993.19
2017-09-13T12:02:07.192Z,993.33
2017-09-13T12:03:07.164Z,993.34
2017-09-13T12:04:07.127Z,993.23
2017-09-13T12:05:07.101Z,993.61
2017-09-13T12:06:07.074Z,993.10
2017-09-13T12:07:07.038Z,993.30
2017-09-13T12:08:07.007Z,993.12
2017-09-13T12:09:06.976Z,993.24
2017-09-13T12:10:06.948Z,993.16
2017-09-13T12:11:06.919Z,993.34
2017-09-13T12:12:06.886Z,993.30
2017-09-13T12:13:06.853Z,993.05
2017-09-13T12:14:06.821Z,993.12
2017-09-13T12:15:06.810Z,993.12
2017-09-13T12:16:06.772Z,993.19
2017-09-13T12:17:06.741Z,993.08